Konstantinos G — SVA7802 — position and weather

sailwx.info

Track history (hours):
 
Tides and Currents Weather Stations Pressure Air Temp Water Temp Dewpoint Dewpoint Depression Visibility Wind Speed Wind Dir Waves Ship Positions

Konstantinos G

Last reported at 2017-Nov-17 16:41 UTC. Time now 2017-Nov-20 12:13 UTC.
Position N 37°09' E 025°47'.

Length 80 m; draft 4.1 m.

Type: Cargo ship. MMSI: 241526000.

Date/timePositionNaut miles runAvg speedWind from/ knotsBaromVisibWave heightAir tempDewpointWater temp
2017-Nov-17 16:41N 37°09' E 025°47'1 7.2
2017-Nov-17 16:31N 37°10' E 025°48'214 6.1
2017-Nov-16 05:23N 40°42' E 025°10'2 4.7
2017-Nov-16 04:59N 40°42' E 025°08'2 4.7
2017-Nov-16 04:30N 40°43' E 025°05'2 4.8
2017-Nov-16 04:00N 40°43' E 025°02'2 4.9
2017-Nov-16 03:30N 40°44' E 024°59'3 5.4
2017-Nov-16 03:00N 40°45' E 024°56'3 5.7
2017-Nov-16 02:31N 40°46' E 024°52'3 5.4
2017-Nov-16 02:00N 40°47' E 024°49'3 5.3
2017-Nov-16 01:30N 40°48' E 024°46'3 5.4
2017-Nov-16 01:00N 40°49' E 024°42'3 5.6
2017-Nov-16 00:31N 40°49' E 024°39'3 5.8
2017-Nov-16 00:01N 40°50' E 024°35'3 6.5
2017-Nov-15 23:31N 40°53' E 024°32'4 7.1
2017-Nov-15 23:00N 40°56' E 024°29'1 2.9
2017-Nov-15 22:31N 40°57' E 024°29'0 0.0
2017-Nov-15 22:01N 40°57' E 024°29'0 0.0
2017-Nov-15 21:31N 40°57' E 024°29'0 0.0
2017-Nov-15 21:01N 40°57' E 024°29'0 0.0
2017-Nov-15 20:31N 40°57' E 024°29'0 0.0
2017-Nov-15 20:01N 40°57' E 024°29'0 0.0
2017-Nov-15 19:31N 40°57' E 024°29'0 0.0
2017-Nov-15 19:01N 40°57' E 024°29'0 0.0
2017-Nov-15 18:31N 40°57' E 024°29'0 0.0
2017-Nov-15 18:00N 40°57' E 024°29'0 0.0
2017-Nov-15 17:30N 40°57' E 024°29'0 0.0
2017-Nov-15 17:01N 40°57' E 024°29'0 0.0
2017-Nov-15 16:31N 40°57' E 024°29'0 0.0
2017-Nov-15 16:01N 40°57' E 024°29'0 0.0
2017-Nov-15 15:30N 40°57' E 024°29'0 0.0
2017-Nov-15 15:01N 40°57' E 024°29'0 0.0
2017-Nov-15 14:31N 40°57' E 024°29'0 0.0
2017-Nov-15 14:01N 40°57' E 024°29'0 0.0
2017-Nov-15 13:31N 40°57' E 024°29'0 0.0
2017-Nov-15 13:01N 40°57' E 024°29'0 0.0
2017-Nov-15 12:31N 40°57' E 024°29'0 0.0
2017-Nov-15 12:01N 40°57' E 024°29'0 0.0
2017-Nov-15 11:31N 40°57' E 024°29'0 0.0
2017-Nov-15 11:00N 40°57' E 024°29'0 0.0
2017-Nov-15 10:31N 40°57' E 024°29'0 0.0
2017-Nov-15 10:01N 40°57' E 024°29'0 0.0
2017-Nov-15 09:31N 40°57' E 024°29'0 0.0
2017-Nov-15 09:00N 40°57' E 024°29'0 0.0
2017-Nov-15 08:31N 40°57' E 024°29'0 0.0
2017-Nov-15 08:01N 40°57' E 024°29'0 0.0
2017-Nov-15 07:31N 40°57' E 024°29'0 0.0
2017-Nov-15 07:01N 40°57' E 024°29'0 0.0
2017-Nov-15 06:31N 40°57' E 024°29'0 0.0
2017-Nov-15 06:00N 40°57' E 024°29'0 0.0
2017-Nov-15 05:30N 40°57' E 024°29'0 0.0
2017-Nov-15 05:01N 40°57' E 024°29'0 0.0
2017-Nov-15 04:31N 40°57' E 024°29'0 0.0
2017-Nov-15 04:00N 40°57' E 024°29'0 0.0
2017-Nov-15 03:31N 40°57' E 024°29'0 0.0
2017-Nov-15 03:00N 40°57' E 024°29'0 0.0
2017-Nov-15 02:31N 40°57' E 024°29'0 0.0
2017-Nov-15 02:01N 40°57' E 024°29'0 0.0
2017-Nov-15 01:30N 40°57' E 024°29'0 0.0
2017-Nov-15 01:01N 40°57' E 024°29'0 0.0
2017-Nov-15 00:31N 40°57' E 024°29'0 0.0
2017-Nov-15 00:01N 40°57' E 024°29'0 0.0
2017-Nov-14 23:31N 40°57' E 024°29'0 0.0
2017-Nov-14 23:01N 40°57' E 024°29'0 0.0
2017-Nov-14 22:30N 40°57' E 024°29'0 0.0
2017-Nov-14 22:01N 40°57' E 024°29'0 0.0
2017-Nov-14 21:31N 40°57' E 024°29'0 0.0
2017-Nov-14 21:01N 40°57' E 024°29'0 0.0
2017-Nov-14 20:30N 40°57' E 024°29'0 0.0
2017-Nov-14 20:01N 40°57' E 024°29'0 0.0
2017-Nov-14 19:30N 40°57' E 024°29'0 0.0
2017-Nov-14 19:00N 40°57' E 024°29'0 0.0
2017-Nov-14 18:31N 40°57' E 024°29'0 0.0
2017-Nov-14 18:01N 40°57' E 024°29'0 0.0
2017-Nov-14 17:30N 40°57' E 024°29'0 0.0
2017-Nov-14 17:00N 40°57' E 024°29'0 0.0
2017-Nov-14 16:31N 40°57' E 024°29'0 0.0
2017-Nov-14 16:00N 40°57' E 024°29'0 0.0
2017-Nov-14 15:31N 40°57' E 024°29'0 0.0
2017-Nov-14 15:01N 40°57' E 024°29'0 0.0
2017-Nov-14 14:31N 40°57' E 024°29'0 0.0
2017-Nov-14 14:01N 40°57' E 024°29'0 0.0
2017-Nov-14 13:31N 40°57' E 024°29'0 0.0
2017-Nov-14 13:01N 40°57' E 024°29'0 0.0
2017-Nov-14 12:31N 40°57' E 024°29'0 0.0
2017-Nov-14 12:01N 40°57' E 024°29'0 0.0
2017-Nov-14 11:31N 40°57' E 024°29'0 0.0
2017-Nov-14 11:01N 40°57' E 024°29'0 0.0
2017-Nov-14 10:31N 40°57' E 024°29'0 0.0
2017-Nov-14 10:00N 40°57' E 024°29'0 0.0
2017-Nov-14 09:31N 40°57' E 024°29'0 0.0
2017-Nov-14 09:00N 40°57' E 024°29'0 0.0
2017-Nov-14 08:31N 40°57' E 024°29'0 0.0
2017-Nov-14 08:00N 40°57' E 024°29'0 0.0
2017-Nov-14 07:31N 40°57' E 024°29'0 0.0
2017-Nov-14 07:00N 40°57' E 024°29'0 0.0
2017-Nov-14 06:31N 40°57' E 024°29'0 0.0
2017-Nov-14 06:01N 40°57' E 024°29'0 0.0
2017-Nov-14 05:31N 40°57' E 024°29'0 0.6
2017-Nov-14 05:01N 40°57' E 024°29'0 0.5
2017-Nov-14 04:31N 40°57' E 024°28'0 0.0
2017-Nov-14 04:01N 40°57' E 024°28'0 0.0
2017-Nov-14 03:30N 40°57' E 024°28'0 0.0
2017-Nov-14 03:01N 40°57' E 024°28'0 0.0
2017-Nov-14 02:30N 40°57' E 024°28'0 0.0
2017-Nov-14 02:01N 40°57' E 024°28'0 0.0
2017-Nov-14 01:31N 40°57' E 024°28'0 0.0
2017-Nov-14 01:01N 40°57' E 024°28'0 0.0
2017-Nov-14 00:31N 40°57' E 024°28'0 0.0
2017-Nov-14 00:01N 40°57' E 024°28'0 0.0
2017-Nov-13 23:30N 40°57' E 024°28'0 0.0
2017-Nov-13 23:01N 40°57' E 024°28'0 0.0
2017-Nov-13 22:31N 40°57' E 024°28'0 0.0
2017-Nov-13 22:00N 40°57' E 024°28'0 0.0
2017-Nov-13 02:00N 40°57' E 024°29'0 0.0
2017-Nov-13 01:30N 40°57' E 024°29'0 0.0
2017-Nov-13 01:00N 40°57' E 024°29'0 0.0
2017-Nov-13 00:30N 40°57' E 024°29'0 0.0
2017-Nov-13 00:01N 40°57' E 024°29'0 0.0
2017-Nov-12 23:30N 40°57' E 024°29'0 0.0
2017-Nov-12 23:01N 40°57' E 024°29'0 0.0
2017-Nov-12 22:31N 40°57' E 024°29'0 0.0
2017-Nov-12 22:01N 40°57' E 024°29'0 0.0
2017-Nov-12 21:31N 40°57' E 024°29'0 0.0
2017-Nov-12 21:00N 40°57' E 024°29'0 0.0
2017-Nov-12 20:31N 40°57' E 024°29'0 0.0
2017-Nov-12 20:01N 40°57' E 024°29'0 0.0
2017-Nov-12 19:31N 40°57' E 024°29'0 0.0
2017-Nov-12 19:00N 40°57' E 024°29'0 0.0
2017-Nov-12 18:31N 40°57' E 024°29'0 0.0
2017-Nov-12 18:00N 40°57' E 024°29'0 0.0
2017-Nov-12 17:31N 40°57' E 024°29'0 0.0
2017-Nov-12 17:01N 40°57' E 024°29'0 0.0
2017-Nov-12 16:31N 40°57' E 024°29'0 0.0
2017-Nov-12 16:01N 40°57' E 024°29'0 0.0
2017-Nov-12 15:31N 40°57' E 024°29'0 0.0
2017-Nov-12 15:01N 40°57' E 024°29'0 0.0
2017-Nov-12 14:30N 40°57' E 024°29'0 0.0
2017-Nov-12 14:01N 40°57' E 024°29'0 0.0
2017-Nov-12 13:31N 40°57' E 024°29'0 0.0
2017-Nov-12 13:00N 40°57' E 024°29'0 0.0
2017-Nov-12 12:31N 40°57' E 024°29'0 0.0
2017-Nov-12 12:01N 40°57' E 024°29'0 0.0
2017-Nov-12 11:31N 40°57' E 024°29'0 0.0
2017-Nov-12 11:00N 40°57' E 024°29'0 0.0
2017-Nov-12 10:31N 40°57' E 024°29'0 0.0
2017-Nov-12 10:01N 40°57' E 024°29'0 0.0
2017-Nov-12 09:30N 40°57' E 024°29'0 0.0
2017-Nov-12 09:00N 40°57' E 024°29'0 0.0
2017-Nov-12 08:31N 40°57' E 024°29'0 0.0
2017-Nov-12 08:00N 40°57' E 024°29'0 0.0
2017-Nov-12 07:30N 40°57' E 024°29'0 0.0
2017-Nov-12 07:01N 40°57' E 024°29'0 0.0
2017-Nov-12 06:30N 40°57' E 024°29'0 0.0
2017-Nov-12 06:01N 40°57' E 024°29'0 0.0
2017-Nov-12 05:30N 40°57' E 024°29'0 0.0
2017-Nov-12 05:01N 40°57' E 024°29'0 0.0
2017-Nov-12 04:31N 40°57' E 024°29'0 0.0
2017-Nov-12 04:00N 40°57' E 024°29'0 0.0
2017-Nov-12 03:31N 40°57' E 024°29'0 0.0
2017-Nov-12 03:01N 40°57' E 024°29'0 0.0
2017-Nov-12 02:31N 40°57' E 024°29'0 0.0
2017-Nov-12 02:00N 40°57' E 024°29'0 0.0
2017-Nov-12 01:31N 40°57' E 024°29'0 0.0
2017-Nov-12 01:01N 40°57' E 024°29'0 0.0
2017-Nov-12 00:31N 40°57' E 024°29'0 0.0
2017-Nov-12 00:00N 40°57' E 024°29'0 0.0
2017-Nov-11 23:31N 40°57' E 024°29'0 0.0
2017-Nov-11 23:01N 40°57' E 024°29'0 0.0
2017-Nov-11 22:31N 40°57' E 024°29'0 0.0
2017-Nov-11 22:01N 40°57' E 024°29'0 0.0
2017-Nov-11 21:30N 40°57' E 024°29'0 0.0
2017-Nov-11 21:01N 40°57' E 024°29'0 0.0
2017-Nov-11 20:30N 40°57' E 024°29'0 0.0
2017-Nov-11 20:01N 40°57' E 024°29'0 0.0
2017-Nov-11 19:31N 40°57' E 024°29'0 0.0
2017-Nov-11 19:01N 40°57' E 024°29'0 0.0
2017-Nov-11 18:30N 40°57' E 024°29'0 0.0
2017-Nov-11 18:01N 40°57' E 024°29'0 0.0
2017-Nov-11 17:31N 40°57' E 024°29'0 0.0
2017-Nov-11 17:01N 40°57' E 024°29'0 0.0
2017-Nov-11 16:31N 40°57' E 024°29'0 0.0
2017-Nov-11 16:00N 40°57' E 024°29'0 0.0
2017-Nov-11 15:31N 40°57' E 024°29'0 0.0
2017-Nov-11 15:01N 40°57' E 024°29'0 0.0
2017-Nov-11 14:30N 40°57' E 024°29'0 0.0
2017-Nov-11 14:00N 40°57' E 024°29'0 0.0
2017-Nov-11 13:31N 40°57' E 024°29'0 0.0
2017-Nov-11 13:00N 40°57' E 024°29'0 0.0
2017-Nov-11 12:31N 40°57' E 024°29'0 0.0
2017-Nov-11 12:00N 40°57' E 024°29'0 0.0
2017-Nov-11 11:30N 40°57' E 024°29'0 0.0
2017-Nov-11 11:01N 40°57' E 024°29'0 0.0
2017-Nov-11 10:31N 40°57' E 024°29'0 0.0
2017-Nov-11 10:00N 40°57' E 024°29'0 0.0
2017-Nov-11 09:31N 40°57' E 024°29'0 0.0
2017-Nov-11 09:00N 40°57' E 024°29'0 0.0
2017-Nov-11 08:30N 40°57' E 024°29'0 0.0
2017-Nov-11 08:01N 40°57' E 024°29'0 0.0
2017-Nov-11 07:31N 40°57' E 024°29'0 0.0
2017-Nov-11 07:01N 40°57' E 024°29'0 0.0
2017-Nov-11 06:30N 40°57' E 024°29'0 0.0
2017-Nov-11 06:01N 40°57' E 024°29'0 0.0
2017-Nov-11 05:30N 40°57' E 024°29'0 0.1
2017-Nov-11 05:00N 40°57' E 024°29'1 1.5
2017-Nov-11 04:31N 40°56' E 024°29'0 0.0
2017-Nov-11 04:00N 40°56' E 024°29'0 0.1
2017-Nov-11 03:30N 40°56' E 024°29'0 0.1
2017-Nov-11 03:00N 40°56' E 024°29'0 0.0
2017-Nov-11 02:30N 40°56' E 024°29'0 0.0
2017-Nov-11 02:00N 40°56' E 024°29'0 0.0
2017-Nov-11 01:31N 40°56' E 024°29'0 0.0
2017-Nov-11 01:01N 40°56' E 024°29'0 0.0
2017-Nov-11 00:31N 40°56' E 024°29'1 1.6
2017-Nov-11 00:01N 40°55' E 024°29'4 7.7
2017-Nov-10 23:31N 40°52' E 024°28'4 8.3
2017-Nov-10 23:00N 40°48' E 024°26'4 8.2
2017-Nov-10 22:31N 40°44' E 024°25'4 8.5
2017-Nov-10 22:01N 40°39' E 024°24'5 8.6
2017-Nov-10 21:24N 40°34' E 024°25'7 8.6
2017-Nov-10 20:36N 40°27' E 024°27'1 8.5
2017-Nov-10 20:29N 40°26' E 024°27'4 8.3
2017-Nov-10 19:57N 40°22' E 024°27'4 8.1
2017-Nov-10 19:30N 40°18' E 024°27'4 8.1
2017-Nov-10 19:00N 40°14' E 024°27'159 7.0
2017-Nov-09 20:13N 37°39' E 023°46'2 8.1
2017-Nov-09 19:57N 37°40' E 023°43'4 8.0
2017-Nov-09 19:31N 37°43' E 023°41'4 8.1
2017-Nov-09 19:01N 37°46' E 023°38'4 7.8
2017-Nov-09 18:31N 37°49' E 023°34'4 8.3
2017-Nov-09 18:00N 37°50' E 023°29'4 8.3
2017-Nov-09 17:31N 37°51' E 023°24'4 8.4
2017-Nov-09 17:00N 37°52' E 023°19'4 8.5
2017-Nov-09 16:31N 37°52' E 023°14'4 8.4
2017-Nov-09 16:00N 37°53' E 023°08'4 8.1
2017-Nov-09 15:30N 37°54' E 023°03'1 1.1
2017-Nov-09 15:00N 37°55' E 023°03'0 0.0
2017-Nov-09 14:30N 37°55' E 023°03'0 0.0
2017-Nov-09 14:00N 37°55' E 023°03'0 0.0
2017-Nov-09 13:31N 37°55' E 023°03'0 0.0
2017-Nov-09 13:00N 37°55' E 023°03'0 0.0
2017-Nov-09 12:31N 37°55' E 023°03'0 0.0
2017-Nov-09 12:01N 37°55' E 023°03'0 0.0
2017-Nov-09 11:30N 37°55' E 023°03'0 0.0
2017-Nov-09 11:00N 37°55' E 023°03'0 0.0
2017-Nov-09 10:31N 37°55' E 023°03'0 0.0
2017-Nov-09 10:01N 37°55' E 023°03'0 0.0
2017-Nov-09 09:31N 37°55' E 023°03'0 0.0
2017-Nov-09 09:01N 37°55' E 023°03'0 0.0
2017-Nov-09 08:31N 37°55' E 023°03'0 0.0
2017-Nov-09 08:01N 37°55' E 023°03'0 0.0
2017-Nov-09 07:30N 37°55' E 023°03'0 0.0
2017-Nov-09 07:01N 37°55' E 023°03'0 0.0
2017-Nov-09 06:31N 37°55' E 023°03'0 0.0
2017-Nov-09 06:01N 37°55' E 023°03'0 0.0
2017-Nov-09 05:31N 37°55' E 023°03'0 0.0
2017-Nov-09 05:01N 37°55' E 023°03'0 0.0
2017-Nov-09 04:31N 37°55' E 023°03'0 0.0
2017-Nov-09 04:01N 37°55' E 023°03'0 0.0
2017-Nov-09 03:31N 37°55' E 023°03'0 0.0
2017-Nov-09 03:01N 37°55' E 023°03'0 0.0
2017-Nov-09 02:31N 37°55' E 023°03'0 0.0
2017-Nov-09 02:00N 37°55' E 023°03'0 0.0
2017-Nov-09 01:31N 37°55' E 023°03'0 0.0
2017-Nov-09 01:01N 37°55' E 023°03'0 0.0
2017-Nov-09 00:31N 37°55' E 023°03'0 0.0
2017-Nov-09 00:01N 37°55' E 023°03'0 0.0
2017-Nov-08 23:31N 37°55' E 023°03'0 0.0
2017-Nov-08 23:01N 37°55' E 023°03'0 0.0
2017-Nov-08 22:31N 37°55' E 023°03'0 0.0
2017-Nov-08 22:01N 37°55' E 023°03'0 0.0
2017-Nov-08 21:31N 37°55' E 023°03'0 0.0
2017-Nov-08 21:01N 37°55' E 023°03'0 0.0
2017-Nov-08 20:31N 37°55' E 023°03'0 0.0
2017-Nov-08 20:01N 37°55' E 023°03'0 0.0
2017-Nov-08 19:31N 37°55' E 023°03'0 0.0
2017-Nov-08 19:00N 37°55' E 023°03'0 0.0
2017-Nov-08 18:30N 37°55' E 023°03'0 0.0
2017-Nov-08 18:00N 37°55' E 023°03'0 0.0
2017-Nov-08 17:31N 37°55' E 023°03'0 0.0
2017-Nov-08 17:00N 37°55' E 023°03'0 0.0
2017-Nov-08 16:31N 37°55' E 023°03'0 0.0
2017-Nov-08 16:01N 37°55' E 023°03'0 0.0
2017-Nov-08 15:30N 37°55' E 023°03'0 0.0
2017-Nov-08 15:01N 37°55' E 023°03'0 0.0
2017-Nov-08 14:31N 37°55' E 023°03'0 0.0
2017-Nov-08 14:01N 37°55' E 023°03'0 0.0
2017-Nov-08 13:31N 37°55' E 023°03'0 0.0
2017-Nov-08 13:01N 37°55' E 023°03'0 0.0
2017-Nov-08 12:31N 37°55' E 023°03'0 0.0
2017-Nov-08 12:01N 37°55' E 023°03'0 0.0
2017-Nov-08 11:31N 37°55' E 023°03'0 0.0
2017-Nov-08 11:01N 37°55' E 023°03'0 0.0
2017-Nov-08 10:31N 37°55' E 023°03'0 0.0
2017-Nov-08 10:00N 37°55' E 023°03'0 0.0
2017-Nov-08 09:30N 37°55' E 023°03'0 0.0
2017-Nov-08 09:01N 37°55' E 023°03'0 1.0
2017-Nov-08 08:30N 37°55' E 023°03'0 0.2
2017-Nov-08 08:01N 37°55' E 023°03'0 0.1
2017-Nov-08 07:31N 37°55' E 023°03'0 0.0
2017-Nov-08 07:01N 37°55' E 023°03'0 0.0
2017-Nov-08 06:30N 37°55' E 023°03'0 0.0
2017-Nov-08 06:01N 37°55' E 023°03'0 0.0
2017-Nov-08 05:30N 37°55' E 023°03'0 0.1
2017-Nov-08 05:00N 37°55' E 023°03'0 0.0
2017-Nov-08 04:31N 37°55' E 023°03'0 0.0
2017-Nov-08 04:01N 37°55' E 023°03'0 0.0
2017-Nov-08 03:30N 37°55' E 023°03'0 0.0
2017-Nov-08 03:01N 37°55' E 023°03'0 0.0
2017-Nov-08 02:31N 37°55' E 023°03'0 0.0
2017-Nov-08 02:01N 37°55' E 023°03'0 0.0
2017-Nov-08 01:31N 37°55' E 023°03'0 0.0
2017-Nov-08 01:01N 37°55' E 023°03'0 0.0
2017-Nov-08 00:30N 37°55' E 023°03'0 0.0
2017-Nov-08 00:01N 37°55' E 023°03'0 0.1
2017-Nov-07 23:31N 37°55' E 023°03'0 0.0
2017-Nov-07 23:01N 37°55' E 023°03'0 0.0
2017-Nov-07 22:31N 37°55' E 023°03'0 0.0
2017-Nov-07 22:00N 37°55' E 023°03'0 0.1
2017-Nov-07 21:31N 37°55' E 023°03'0 0.0
2017-Nov-07 21:01N 37°55' E 023°03'0 0.0
2017-Nov-07 20:31N 37°55' E 023°03'0 0.0
2017-Nov-07 20:01N 37°55' E 023°03'0 0.0
2017-Nov-07 19:30N 37°55' E 023°03'0 0.0
2017-Nov-07 19:01N 37°55' E 023°03'0 0.0
2017-Nov-07 18:31N 37°55' E 023°03'0 0.0
2017-Nov-07 18:01N 37°55' E 023°03'0 0.0
2017-Nov-07 17:31N 37°55' E 023°03'0 0.1
2017-Nov-07 17:01N 37°55' E 023°03'  
Track history (hours):
 
Tides and Currents Weather Stations Pressure Air Temp Water Temp Dewpoint Dewpoint Depression Visibility Wind Speed Wind Dir Waves Ship Positions

Konstantinos G

Last reported at 2017-Nov-17 16:41 UTC. Time now 2017-Nov-20 12:13 UTC.
Position N 37°09' E 025°47'.

Length 80 m; draft 4.1 m.

Type: Cargo ship. MMSI: 241526000.

Date/timePositionNaut miles runAvg speedWind from/ knotsBaromVisibWave heightAir tempDewpointWater temp
2017-Nov-17 16:41N 37°09' E 025°47'1 7.2
2017-Nov-17 16:31N 37°10' E 025°48'214 6.1
2017-Nov-16 05:23N 40°42' E 025°10'2 4.7
2017-Nov-16 04:59N 40°42' E 025°08'2 4.7
2017-Nov-16 04:30N 40°43' E 025°05'2 4.8
2017-Nov-16 04:00N 40°43' E 025°02'2 4.9
2017-Nov-16 03:30N 40°44' E 024°59'3 5.4
2017-Nov-16 03:00N 40°45' E 024°56'3 5.7
2017-Nov-16 02:31N 40°46' E 024°52'3 5.4
2017-Nov-16 02:00N 40°47' E 024°49'3 5.3
2017-Nov-16 01:30N 40°48' E 024°46'3 5.4
2017-Nov-16 01:00N 40°49' E 024°42'3 5.6
2017-Nov-16 00:31N 40°49' E 024°39'3 5.8
2017-Nov-16 00:01N 40°50' E 024°35'3 6.5
2017-Nov-15 23:31N 40°53' E 024°32'4 7.1
2017-Nov-15 23:00N 40°56' E 024°29'1 2.9
2017-Nov-15 22:31N 40°57' E 024°29'0 0.0
2017-Nov-15 22:01N 40°57' E 024°29'0 0.0
2017-Nov-15 21:31N 40°57' E 024°29'0 0.0
2017-Nov-15 21:01N 40°57' E 024°29'0 0.0
2017-Nov-15 20:31N 40°57' E 024°29'0 0.0
2017-Nov-15 20:01N 40°57' E 024°29'0 0.0
2017-Nov-15 19:31N 40°57' E 024°29'0 0.0
2017-Nov-15 19:01N 40°57' E 024°29'0 0.0
2017-Nov-15 18:31N 40°57' E 024°29'0 0.0
2017-Nov-15 18:00N 40°57' E 024°29'0 0.0
2017-Nov-15 17:30N 40°57' E 024°29'0 0.0
2017-Nov-15 17:01N 40°57' E 024°29'0 0.0
2017-Nov-15 16:31N 40°57' E 024°29'0 0.0
2017-Nov-15 16:01N 40°57' E 024°29'0 0.0
2017-Nov-15 15:30N 40°57' E 024°29'0 0.0
2017-Nov-15 15:01N 40°57' E 024°29'0 0.0
2017-Nov-15 14:31N 40°57' E 024°29'0 0.0
2017-Nov-15 14:01N 40°57' E 024°29'0 0.0
2017-Nov-15 13:31N 40°57' E 024°29'0 0.0
2017-Nov-15 13:01N 40°57' E 024°29'0 0.0
2017-Nov-15 12:31N 40°57' E 024°29'0 0.0
2017-Nov-15 12:01N 40°57' E 024°29'0 0.0
2017-Nov-15 11:31N 40°57' E 024°29'0 0.0
2017-Nov-15 11:00N 40°57' E 024°29'0 0.0
2017-Nov-15 10:31N 40°57' E 024°29'0 0.0
2017-Nov-15 10:01N 40°57' E 024°29'0 0.0
2017-Nov-15 09:31N 40°57' E 024°29'0 0.0
2017-Nov-15 09:00N 40°57' E 024°29'0 0.0
2017-Nov-15 08:31N 40°57' E 024°29'0 0.0
2017-Nov-15 08:01N 40°57' E 024°29'0 0.0
2017-Nov-15 07:31N 40°57' E 024°29'0 0.0
2017-Nov-15 07:01N 40°57' E 024°29'0 0.0
2017-Nov-15 06:31N 40°57' E 024°29'0 0.0
2017-Nov-15 06:00N 40°57' E 024°29'0 0.0
2017-Nov-15 05:30N 40°57' E 024°29'0 0.0
2017-Nov-15 05:01N 40°57' E 024°29'0 0.0
2017-Nov-15 04:31N 40°57' E 024°29'0 0.0
2017-Nov-15 04:00N 40°57' E 024°29'0 0.0
2017-Nov-15 03:31N 40°57' E 024°29'0 0.0
2017-Nov-15 03:00N 40°57' E 024°29'0 0.0
2017-Nov-15 02:31N 40°57' E 024°29'0 0.0
2017-Nov-15 02:01N 40°57' E 024°29'0 0.0
2017-Nov-15 01:30N 40°57' E 024°29'0 0.0
2017-Nov-15 01:01N 40°57' E 024°29'0 0.0
2017-Nov-15 00:31N 40°57' E 024°29'0 0.0
2017-Nov-15 00:01N 40°57' E 024°29'0 0.0
2017-Nov-14 23:31N 40°57' E 024°29'0 0.0
2017-Nov-14 23:01N 40°57' E 024°29'0 0.0
2017-Nov-14 22:30N 40°57' E 024°29'0 0.0
2017-Nov-14 22:01N 40°57' E 024°29'0 0.0
2017-Nov-14 21:31N 40°57' E 024°29'0 0.0
2017-Nov-14 21:01N 40°57' E 024°29'0 0.0
2017-Nov-14 20:30N 40°57' E 024°29'0 0.0
2017-Nov-14 20:01N 40°57' E 024°29'0 0.0
2017-Nov-14 19:30N 40°57' E 024°29'0 0.0
2017-Nov-14 19:00N 40°57' E 024°29'0 0.0
2017-Nov-14 18:31N 40°57' E 024°29'0 0.0
2017-Nov-14 18:01N 40°57' E 024°29'0 0.0
2017-Nov-14 17:30N 40°57' E 024°29'0 0.0
2017-Nov-14 17:00N 40°57' E 024°29'0 0.0
2017-Nov-14 16:31N 40°57' E 024°29'0 0.0
2017-Nov-14 16:00N 40°57' E 024°29'0 0.0
2017-Nov-14 15:31N 40°57' E 024°29'0 0.0
2017-Nov-14 15:01N 40°57' E 024°29'0 0.0
2017-Nov-14 14:31N 40°57' E 024°29'0 0.0
2017-Nov-14 14:01N 40°57' E 024°29'0 0.0
2017-Nov-14 13:31N 40°57' E 024°29'0 0.0
2017-Nov-14 13:01N 40°57' E 024°29'0 0.0
2017-Nov-14 12:31N 40°57' E 024°29'0 0.0
2017-Nov-14 12:01N 40°57' E 024°29'0 0.0
2017-Nov-14 11:31N 40°57' E 024°29'0 0.0
2017-Nov-14 11:01N 40°57' E 024°29'0 0.0
2017-Nov-14 10:31N 40°57' E 024°29'0 0.0
2017-Nov-14 10:00N 40°57' E 024°29'0 0.0
2017-Nov-14 09:31N 40°57' E 024°29'0 0.0
2017-Nov-14 09:00N 40°57' E 024°29'0 0.0
2017-Nov-14 08:31N 40°57' E 024°29'0 0.0
2017-Nov-14 08:00N 40°57' E 024°29'0 0.0
2017-Nov-14 07:31N 40°57' E 024°29'0 0.0
2017-Nov-14 07:00N 40°57' E 024°29'0 0.0
2017-Nov-14 06:31N 40°57' E 024°29'0 0.0
2017-Nov-14 06:01N 40°57' E 024°29'0 0.0
2017-Nov-14 05:31N 40°57' E 024°29'0 0.6
2017-Nov-14 05:01N 40°57' E 024°29'0 0.5
2017-Nov-14 04:31N 40°57' E 024°28'0 0.0
2017-Nov-14 04:01N 40°57' E 024°28'0 0.0
2017-Nov-14 03:30N 40°57' E 024°28'0 0.0
2017-Nov-14 03:01N 40°57' E 024°28'0 0.0
2017-Nov-14 02:30N 40°57' E 024°28'0 0.0
2017-Nov-14 02:01N 40°57' E 024°28'0 0.0
2017-Nov-14 01:31N 40°57' E 024°28'0 0.0
2017-Nov-14 01:01N 40°57' E 024°28'0 0.0
2017-Nov-14 00:31N 40°57' E 024°28'0 0.0
2017-Nov-14 00:01N 40°57' E 024°28'0 0.0
2017-Nov-13 23:30N 40°57' E 024°28'0 0.0
2017-Nov-13 23:01N 40°57' E 024°28'0 0.0
2017-Nov-13 22:31N 40°57' E 024°28'0 0.0
2017-Nov-13 22:00N 40°57' E 024°28'0 0.0
2017-Nov-13 02:00N 40°57' E 024°29'0 0.0
2017-Nov-13 01:30N 40°57' E 024°29'0 0.0
2017-Nov-13 01:00N 40°57' E 024°29'0 0.0
2017-Nov-13 00:30N 40°57' E 024°29'0 0.0
2017-Nov-13 00:01N 40°57' E 024°29'0 0.0
2017-Nov-12 23:30N 40°57' E 024°29'0 0.0
2017-Nov-12 23:01N 40°57' E 024°29'0 0.0
2017-Nov-12 22:31N 40°57' E 024°29'0 0.0
2017-Nov-12 22:01N 40°57' E 024°29'0 0.0
2017-Nov-12 21:31N 40°57' E 024°29'0 0.0
2017-Nov-12 21:00N 40°57' E 024°29'0 0.0
2017-Nov-12 20:31N 40°57' E 024°29'0 0.0
2017-Nov-12 20:01N 40°57' E 024°29'0 0.0
2017-Nov-12 19:31N 40°57' E 024°29'0 0.0
2017-Nov-12 19:00N 40°57' E 024°29'0 0.0
2017-Nov-12 18:31N 40°57' E 024°29'0 0.0
2017-Nov-12 18:00N 40°57' E 024°29'0 0.0
2017-Nov-12 17:31N 40°57' E 024°29'0 0.0
2017-Nov-12 17:01N 40°57' E 024°29'0 0.0
2017-Nov-12 16:31N 40°57' E 024°29'0 0.0
2017-Nov-12 16:01N 40°57' E 024°29'0 0.0
2017-Nov-12 15:31N 40°57' E 024°29'0 0.0
2017-Nov-12 15:01N 40°57' E 024°29'0 0.0
2017-Nov-12 14:30N 40°57' E 024°29'0 0.0
2017-Nov-12 14:01N 40°57' E 024°29'0 0.0
2017-Nov-12 13:31N 40°57' E 024°29'0 0.0
2017-Nov-12 13:00N 40°57' E 024°29'0 0.0
2017-Nov-12 12:31N 40°57' E 024°29'0 0.0
2017-Nov-12 12:01N 40°57' E 024°29'0 0.0
2017-Nov-12 11:31N 40°57' E 024°29'0 0.0
2017-Nov-12 11:00N 40°57' E 024°29'0 0.0
2017-Nov-12 10:31N 40°57' E 024°29'0 0.0
2017-Nov-12 10:01N 40°57' E 024°29'0 0.0
2017-Nov-12 09:30N 40°57' E 024°29'0 0.0
2017-Nov-12 09:00N 40°57' E 024°29'0 0.0
2017-Nov-12 08:31N 40°57' E 024°29'0 0.0
2017-Nov-12 08:00N 40°57' E 024°29'0 0.0
2017-Nov-12 07:30N 40°57' E 024°29'0 0.0
2017-Nov-12 07:01N 40°57' E 024°29'0 0.0
2017-Nov-12 06:30N 40°57' E 024°29'0 0.0
2017-Nov-12 06:01N 40°57' E 024°29'0 0.0
2017-Nov-12 05:30N 40°57' E 024°29'0 0.0
2017-Nov-12 05:01N 40°57' E 024°29'0 0.0
2017-Nov-12 04:31N 40°57' E 024°29'0 0.0
2017-Nov-12 04:00N 40°57' E 024°29'0 0.0
2017-Nov-12 03:31N 40°57' E 024°29'0 0.0
2017-Nov-12 03:01N 40°57' E 024°29'0 0.0
2017-Nov-12 02:31N 40°57' E 024°29'0 0.0
2017-Nov-12 02:00N 40°57' E 024°29'0 0.0
2017-Nov-12 01:31N 40°57' E 024°29'0 0.0
2017-Nov-12 01:01N 40°57' E 024°29'0 0.0
2017-Nov-12 00:31N 40°57' E 024°29'0 0.0
2017-Nov-12 00:00N 40°57' E 024°29'0 0.0
2017-Nov-11 23:31N 40°57' E 024°29'0 0.0
2017-Nov-11 23:01N 40°57' E 024°29'0 0.0
2017-Nov-11 22:31N 40°57' E 024°29'0 0.0
2017-Nov-11 22:01N 40°57' E 024°29'0 0.0
2017-Nov-11 21:30N 40°57' E 024°29'0 0.0
2017-Nov-11 21:01N 40°57' E 024°29'0 0.0
2017-Nov-11 20:30N 40°57' E 024°29'0 0.0
2017-Nov-11 20:01N 40°57' E 024°29'0 0.0
2017-Nov-11 19:31N 40°57' E 024°29'0 0.0
2017-Nov-11 19:01N 40°57' E 024°29'0 0.0
2017-Nov-11 18:30N 40°57' E 024°29'0 0.0
2017-Nov-11 18:01N 40°57' E 024°29'0 0.0
2017-Nov-11 17:31N 40°57' E 024°29'0 0.0
2017-Nov-11 17:01N 40°57' E 024°29'0 0.0
2017-Nov-11 16:31N 40°57' E 024°29'0 0.0
2017-Nov-11 16:00N 40°57' E 024°29'0 0.0
2017-Nov-11 15:31N 40°57' E 024°29'0 0.0
2017-Nov-11 15:01N 40°57' E 024°29'0 0.0
2017-Nov-11 14:30N 40°57' E 024°29'0 0.0
2017-Nov-11 14:00N 40°57' E 024°29'0 0.0
2017-Nov-11 13:31N 40°57' E 024°29'0 0.0
2017-Nov-11 13:00N 40°57' E 024°29'0 0.0
2017-Nov-11 12:31N 40°57' E 024°29'0 0.0
2017-Nov-11 12:00N 40°57' E 024°29'0 0.0
2017-Nov-11 11:30N 40°57' E 024°29'0 0.0
2017-Nov-11 11:01N 40°57' E 024°29'0 0.0
2017-Nov-11 10:31N 40°57' E 024°29'0 0.0
2017-Nov-11 10:00N 40°57' E 024°29'0 0.0
2017-Nov-11 09:31N 40°57' E 024°29'0 0.0
2017-Nov-11 09:00N 40°57' E 024°29'0 0.0
2017-Nov-11 08:30N 40°57' E 024°29'0 0.0
2017-Nov-11 08:01N 40°57' E 024°29'0 0.0
2017-Nov-11 07:31N 40°57' E 024°29'0 0.0
2017-Nov-11 07:01N 40°57' E 024°29'0 0.0
2017-Nov-11 06:30N 40°57' E 024°29'0 0.0
2017-Nov-11 06:01N 40°57' E 024°29'0 0.0
2017-Nov-11 05:30N 40°57' E 024°29'0 0.1
2017-Nov-11 05:00N 40°57' E 024°29'1 1.5
2017-Nov-11 04:31N 40°56' E 024°29'0 0.0
2017-Nov-11 04:00N 40°56' E 024°29'0 0.1
2017-Nov-11 03:30N 40°56' E 024°29'0 0.1
2017-Nov-11 03:00N 40°56' E 024°29'0 0.0
2017-Nov-11 02:30N 40°56' E 024°29'0 0.0
2017-Nov-11 02:00N 40°56' E 024°29'0 0.0
2017-Nov-11 01:31N 40°56' E 024°29'0 0.0
2017-Nov-11 01:01N 40°56' E 024°29'0 0.0
2017-Nov-11 00:31N 40°56' E 024°29'1 1.6
2017-Nov-11 00:01N 40°55' E 024°29'4 7.7
2017-Nov-10 23:31N 40°52' E 024°28'4 8.3
2017-Nov-10 23:00N 40°48' E 024°26'4 8.2
2017-Nov-10 22:31N 40°44' E 024°25'4 8.5
2017-Nov-10 22:01N 40°39' E 024°24'5 8.6
2017-Nov-10 21:24N 40°34' E 024°25'7 8.6
2017-Nov-10 20:36N 40°27' E 024°27'1 8.5
2017-Nov-10 20:29N 40°26' E 024°27'4 8.3
2017-Nov-10 19:57N 40°22' E 024°27'4 8.1
2017-Nov-10 19:30N 40°18' E 024°27'4 8.1
2017-Nov-10 19:00N 40°14' E 024°27'159 7.0
2017-Nov-09 20:13N 37°39' E 023°46'2 8.1
2017-Nov-09 19:57N 37°40' E 023°43'4 8.0
2017-Nov-09 19:31N 37°43' E 023°41'4 8.1
2017-Nov-09 19:01N 37°46' E 023°38'4 7.8
2017-Nov-09 18:31N 37°49' E 023°34'4 8.3
2017-Nov-09 18:00N 37°50' E 023°29'4 8.3
2017-Nov-09 17:31N 37°51' E 023°24'4 8.4
2017-Nov-09 17:00N 37°52' E 023°19'4 8.5
2017-Nov-09 16:31N 37°52' E 023°14'4 8.4
2017-Nov-09 16:00N 37°53' E 023°08'4 8.1
2017-Nov-09 15:30N 37°54' E 023°03'1 1.1
2017-Nov-09 15:00N 37°55' E 023°03'0 0.0
2017-Nov-09 14:30N 37°55' E 023°03'0 0.0
2017-Nov-09 14:00N 37°55' E 023°03'0 0.0
2017-Nov-09 13:31N 37°55' E 023°03'0 0.0
2017-Nov-09 13:00N 37°55' E 023°03'0 0.0
2017-Nov-09 12:31N 37°55' E 023°03'0 0.0
2017-Nov-09 12:01N 37°55' E 023°03'0 0.0
2017-Nov-09 11:30N 37°55' E 023°03'0 0.0
2017-Nov-09 11:00N 37°55' E 023°03'0 0.0
2017-Nov-09 10:31N 37°55' E 023°03'0 0.0
2017-Nov-09 10:01N 37°55' E 023°03'0 0.0
2017-Nov-09 09:31N 37°55' E 023°03'0 0.0
2017-Nov-09 09:01N 37°55' E 023°03'0 0.0
2017-Nov-09 08:31N 37°55' E 023°03'0 0.0
2017-Nov-09 08:01N 37°55' E 023°03'0 0.0
2017-Nov-09 07:30N 37°55' E 023°03'0 0.0
2017-Nov-09 07:01N 37°55' E 023°03'0 0.0
2017-Nov-09 06:31N 37°55' E 023°03'0 0.0
2017-Nov-09 06:01N 37°55' E 023°03'0 0.0
2017-Nov-09 05:31N 37°55' E 023°03'0 0.0
2017-Nov-09 05:01N 37°55' E 023°03'0 0.0
2017-Nov-09 04:31N 37°55' E 023°03'0 0.0
2017-Nov-09 04:01N 37°55' E 023°03'0 0.0
2017-Nov-09 03:31N 37°55' E 023°03'0 0.0
2017-Nov-09 03:01N 37°55' E 023°03'0 0.0
2017-Nov-09 02:31N 37°55' E 023°03'0 0.0
2017-Nov-09 02:00N 37°55' E 023°03'0 0.0
2017-Nov-09 01:31N 37°55' E 023°03'0 0.0
2017-Nov-09 01:01N 37°55' E 023°03'0 0.0
2017-Nov-09 00:31N 37°55' E 023°03'0 0.0
2017-Nov-09 00:01N 37°55' E 023°03'0 0.0
2017-Nov-08 23:31N 37°55' E 023°03'0 0.0
2017-Nov-08 23:01N 37°55' E 023°03'0 0.0
2017-Nov-08 22:31N 37°55' E 023°03'0 0.0
2017-Nov-08 22:01N 37°55' E 023°03'0 0.0
2017-Nov-08 21:31N 37°55' E 023°03'0 0.0
2017-Nov-08 21:01N 37°55' E 023°03'0 0.0
2017-Nov-08 20:31N 37°55' E 023°03'0 0.0
2017-Nov-08 20:01N 37°55' E 023°03'0 0.0
2017-Nov-08 19:31N 37°55' E 023°03'0 0.0
2017-Nov-08 19:00N 37°55' E 023°03'0 0.0
2017-Nov-08 18:30N 37°55' E 023°03'0 0.0
2017-Nov-08 18:00N 37°55' E 023°03'0 0.0
2017-Nov-08 17:31N 37°55' E 023°03'0 0.0
2017-Nov-08 17:00N 37°55' E 023°03'0 0.0
2017-Nov-08 16:31N 37°55' E 023°03'0 0.0
2017-Nov-08 16:01N 37°55' E 023°03'0 0.0
2017-Nov-08 15:30N 37°55' E 023°03'0 0.0
2017-Nov-08 15:01N 37°55' E 023°03'0 0.0
2017-Nov-08 14:31N 37°55' E 023°03'0 0.0
2017-Nov-08 14:01N 37°55' E 023°03'0 0.0
2017-Nov-08 13:31N 37°55' E 023°03'0 0.0
2017-Nov-08 13:01N 37°55' E 023°03'0 0.0
2017-Nov-08 12:31N 37°55' E 023°03'0 0.0
2017-Nov-08 12:01N 37°55' E 023°03'0 0.0
2017-Nov-08 11:31N 37°55' E 023°03'0 0.0
2017-Nov-08 11:01N 37°55' E 023°03'0 0.0
2017-Nov-08 10:31N 37°55' E 023°03'0 0.0
2017-Nov-08 10:00N 37°55' E 023°03'0 0.0
2017-Nov-08 09:30N 37°55' E 023°03'0 0.0
2017-Nov-08 09:01N 37°55' E 023°03'0 1.0
2017-Nov-08 08:30N 37°55' E 023°03'0 0.2
2017-Nov-08 08:01N 37°55' E 023°03'0 0.1
2017-Nov-08 07:31N 37°55' E 023°03'0 0.0
2017-Nov-08 07:01N 37°55' E 023°03'0 0.0
2017-Nov-08 06:30N 37°55' E 023°03'0 0.0
2017-Nov-08 06:01N 37°55' E 023°03'0 0.0
2017-Nov-08 05:30N 37°55' E 023°03'0 0.1
2017-Nov-08 05:00N 37°55' E 023°03'0 0.0
2017-Nov-08 04:31N 37°55' E 023°03'0 0.0
2017-Nov-08 04:01N 37°55' E 023°03'0 0.0
2017-Nov-08 03:30N 37°55' E 023°03'0 0.0
2017-Nov-08 03:01N 37°55' E 023°03'0 0.0
2017-Nov-08 02:31N 37°55' E 023°03'0 0.0
2017-Nov-08 02:01N 37°55' E 023°03'0 0.0
2017-Nov-08 01:31N 37°55' E 023°03'0 0.0
2017-Nov-08 01:01N 37°55' E 023°03'0 0.0
2017-Nov-08 00:30N 37°55' E 023°03'0 0.0
2017-Nov-08 00:01N 37°55' E 023°03'0 0.1
2017-Nov-07 23:31N 37°55' E 023°03'0 0.0
2017-Nov-07 23:01N 37°55' E 023°03'0 0.0
2017-Nov-07 22:31N 37°55' E 023°03'0 0.0
2017-Nov-07 22:00N 37°55' E 023°03'0 0.1
2017-Nov-07 21:31N 37°55' E 023°03'0 0.0
2017-Nov-07 21:01N 37°55' E 023°03'0 0.0
2017-Nov-07 20:31N 37°55' E 023°03'0 0.0
2017-Nov-07 20:01N 37°55' E 023°03'0 0.0
2017-Nov-07 19:30N 37°55' E 023°03'0 0.0
2017-Nov-07 19:01N 37°55' E 023°03'0 0.0
2017-Nov-07 18:31N 37°55' E 023°03'0 0.0
2017-Nov-07 18:01N 37°55' E 023°03'0 0.0
2017-Nov-07 17:31N 37°55' E 023°03'0 0.1
2017-Nov-07 17:01N 37°55' E 023°03'  

Dump ship's entire track history